METAR Data
IDs: Format: Raw Decoded Include TAF

Data at: 1508 UTC 18 Aug 2019

PABE 181453Z COR 01009KT 10SM CLR 08/06 A3036 RMK AO2 SLP283 T00830061 58013 TSNO
PABE 181353Z 02009KT 10SM CLR 08/06 A3037 RMK AO2 SLP287 T00830061
PABE 181253Z 01009KT 10SM CLR 09/07 A3039 RMK AO2 SLP292 T00940067
PABE 181153Z 01009KT 10SM CLR 10/07 A3040 RMK AO2 SLP295 T01000072 10150 20100 56007
PABE 181053Z 02010KT 10SM CLR 11/08 A3040 RMK AO2 SLP296 T01060078
PABE 180953Z 01009KT 10SM CLR 11/08 A3041 RMK AO2 SLP300 T01110083
PABE 180853Z 02011KT 10SM CLR 12/09 A3042 RMK AO2 SLP303 T01170089 401720094 58004
PABE 180753Z 01010KT 10SM CLR 12/08 A3043 RMK AO2 SLP306 T01220083
PABE 180653Z 01009KT 10SM CLR 13/09 A3043 RMK AO2 SLP306 T01330089
PABE 180553Z 01008KT 10SM CLR 15/09 A3044 RMK AO2 SLP308 T01500089 10172 20150 56007
PABE 180453Z 02012KT 10SM CLR 17/08 A3044 RMK AO2 SLP309 T01670083
PABE 180353Z 04016G22KT 10SM CLR 17/08 A3044 RMK AO2 SLP310 T01720078
PABE 180253Z 02016KT 10SM CLR 17/08 A3046 RMK AO2 SLP314 T01720078 56012
PABE 180153Z 02015G20KT 10SM CLR 17/08 A3046 RMK AO2 SLP317 T01720083
PABE 180053Z 36015G21KT 10SM CLR 17/08 A3047 RMK AO2 SLP321 T01670078
PABE 172353Z 02015G23KT 10SM CLR 17/07 A3049 RMK AO2 SLP327 T01670072 10167 20111 58008
PABE 172253Z 02016G23KT 10SM CLR 16/07 A3051 RMK AO2 SLP332 T01610067
PABE 172153Z 03012G19KT 10SM CLR 16/07 A3050 RMK AO2 SLP331 T01610072
PABE 172053Z 02010KT 10SM CLR 15/08 A3052 RMK AO2 SLP335 T01500078 50000
PABE 171953Z 01011KT 10SM CLR 13/09 A3052 RMK AO2 SLP336 T01330094
PABE 171853Z 36009KT 10SM CLR 12/09 A3052 RMK AO2 SLP335 T01220089
PABE 171753Z 02009KT 10SM CLR 12/09 A3051 RMK AO2 SLP334 T01170089 10139 20094 52005
PABE 171653Z 02006KT 10SM CLR 10/09 A3051 RMK AO2 SLP332 T01000089
PABE 171553Z 01007KT 10SM SCT200 10/08 A3051 RMK AO2 SLP331 T01000083
PABE 171511Z 02007KT 10SM SCT200 11/09 A3050 RMK AO2 T01060094
PABE 171453Z 01010KT 10SM SCT007 BKN021 11/11 A3050 RMK AO2 SLP329 T01110106 53002
PABE 171444Z AUTO 01008KT 10SM SCT007 BKN021 12/11 A3049 RMK AO2 T01170111 TSNO
PABE 171353Z 01006KT 10SM SCT007 SCT070 12/12 A3049 RMK AO2 SLP327 T01220117
PABE 171335Z 36006KT 10SM BKN008 BKN024 OVC070 13/12 A3050 RMK AO2 T01280117
PABE 171330Z 01007KT 10SM SCT008 SCT024 OVC070 13/12 A3049 RMK AO2 T01280117
PABE 171253Z 35008KT 10SM FEW007 BKN015 OVC031 13/12 A3049 RMK AO2 SLP327 T01330122
PABE 171250Z 35007KT 10SM FEW006 BKN022 OVC031 13/12 A3049 RMK AO2
PABE 171232Z 35005KT 10SM SCT006 SCT014 OVC030 13/13 A3049 RMK AO2 T01330128
PABE 171153Z 34009KT 10SM BKN005 BKN010 OVC014 14/13 A3049 RMK AO2 SLP326 60003 70003 T01390128 10150 20139 53003
PABE 171111Z 33006KT 10SM OVC005 14/13 A3049 RMK AO2 T01390133
PABE 171053Z 33006KT 10SM OVC004 14/13 A3049 RMK AO2 CIG 003V009 SLP325 T01390133
PABE 170953Z 31005KT 10SM BKN004 BKN010 OVC015 14/13 A3048 RMK AO2 SLP323 T01390133
PABE 170926Z 32007KT 8SM BKN003 OVC010 14/13 A3048 RMK AO2 T01390133
PABE 170916Z 32008KT 2SM BR OVC003 14/13 A3048 RMK AO2 CIG 002V007 T01390133
PABE 170853Z 30006KT 9SM BKN004 OVC011 14/13 A3048 RMK AO2 RAE0755B18E28 SLP323 P0001 60003 T01390133 401670117 53001
PABE 170835Z 30007KT 5SM BR BKN003 OVC011 14/13 A3048 RMK AO2 RAE0755B18E28 P0001 T01390133
PABE 170753Z 28007KT 5SM -RA BR OVC006 14/13 A3048 RMK AO2 RAB28 SLP322 P0000 T01390133
PABE 170736Z 27006KT 5SM -RA BR BKN008 OVC014 14/13 A3048 RMK AO2 RAB28 CIG 006V011 P0000 T01390133
PABE 170721Z 28006KT 10SM SCT004 BKN010 OVC016 14/13 A3048 RMK AO2 T01390133
PABE 170711Z 28007KT 6SM BR BKN004 BKN013 OVC018 14/13 A3048 RMK AO2 T01390133
PABE 170703Z 28005KT 4SM BR SCT004 BKN007 OVC027 14/14 A3048 RMK AO2 T01440139
PABE 170653Z 29007KT 4SM BR SCT004 BKN011 OVC030 14/13 A3048 RMK AO2 RAB01E11B17E40 SLP322 P0002 T01440133
PABE 170642Z 28007KT 3SM BR SCT004 BKN012 OVC027 14/13 A3048 RMK AO2 RAB01E11B17E40 P0002 T01440133
PABE 170635Z 28009KT 2SM -RA BR SCT004 BKN009 OVC023 14/14 A3048 RMK AO2 RAB01E11B17 P0001 T01440139
PABE 170623Z 29008KT 1 1/2SM R19R/6000VP6000FT -RA BR BKN004 BKN009 OVC013 14/14 A3048 RMK AO2 RAB01E11B17 P0001 T01440139
PABE 170614Z 29009KT 2SM BR BKN004 OVC008 14/14 A3049 RMK AO2 RAB01E11 CIG 003V006 P0001 T01440139
PABE 170603Z 29007KT 1 1/2SM R19R/6000VP6000FT -RA BR BKN004 OVC008 15/14 A3048 RMK AO2 RAB01 P0001 T01500139
PABE 170553Z 26005KT 2 1/2SM BR BKN005 OVC010 15/14 A3048 RMK AO2 RAB39E49 SLP322 P0000 60000 T01500139 10167 20144 55005
PABE 170551Z 28006KT 2 1/2SM BR BKN005 OVC010 15/14 A3048 RMK AO2 RAB39E49 P0000
PABE 170533Z 27007KT 1 3/4SM R19R/5500VP6000FT BR BKN005 OVC010 14/14 A3048 RMK AO2 T01440139
PABE 170453Z 25008KT 9SM BKN005 BKN009 OVC017 15/14 A3048 RMK AO2 CIG 004V008 SLP323 T01500144
PABE 170438Z 27006KT 3SM BR BKN006 BKN009 OVC025 15/14 A3048 RMK AO2 T01500139
PABE 170431Z 27006KT 2 1/2SM BR BKN006 OVC023 15/14 A3048 RMK AO2 T01500144
PABE 170419Z 27006KT 1 1/2SM BR SCT006 BKN012 OVC021 15/14 A3048 RMK AO2 T01500139
PABE 170408Z 27008KT 1 1/2SM R19R/6000VP6000FT BR BKN010 OVC014 15/14 A3049 RMK AO2 T01500139
PABE 170353Z 27005KT 6SM BR OVC012 15/14 A3049 RMK AO2 RAB39E49 SLP326 P0000 T01500139